sensor_id;sensor_type;location;lat;lon;timestamp;pressure;altitude;pressure_sealevel;temperature;humidity
4705;BME280;2366;51.332;6.610;2023-04-29T00:01:14;101194.78;;;15.95;70.91
4705;BME280;2366;51.332;6.610;2023-04-29T00:03:39;101202.41;;;15.89;71.35
4705;BME280;2366;51.332;6.610;2023-04-29T00:06:04;101196.78;;;15.56;71.21
4705;BME280;2366;51.332;6.610;2023-04-29T00:08:30;101205.19;;;15.39;72.66
4705;BME280;2366;51.332;6.610;2023-04-29T00:10:55;101196.88;;;15.31;73.17
4705;BME280;2366;51.332;6.610;2023-04-29T00:13:21;101207.66;;;15.42;72.78
4705;BME280;2366;51.332;6.610;2023-04-29T00:15:46;101206.78;;;15.17;73.20
4705;BME280;2366;51.332;6.610;2023-04-29T00:18:12;101202.88;;;15.34;72.91
4705;BME280;2366;51.332;6.610;2023-04-29T00:20:38;101208.84;;;15.38;72.73
4705;BME280;2366;51.332;6.610;2023-04-29T00:23:04;101206.84;;;15.29;72.78
4705;BME280;2366;51.332;6.610;2023-04-29T00:25:30;101207.06;;;15.26;72.94
4705;BME280;2366;51.332;6.610;2023-04-29T00:27:55;101206.03;;;15.39;72.85
4705;BME280;2366;51.332;6.610;2023-04-29T00:30:25;101209.16;;;15.46;72.16
4705;BME280;2366;51.332;6.610;2023-04-29T00:32:51;101222.50;;;15.46;72.28
4705;BME280;2366;51.332;6.610;2023-04-29T00:35:17;101227.25;;;15.30;71.73
4705;BME280;2366;51.332;6.610;2023-04-29T00:37:42;101229.88;;;15.18;72.29
4705;BME280;2366;51.332;6.610;2023-04-29T00:40:08;101229.94;;;15.30;72.60
4705;BME280;2366;51.332;6.610;2023-04-29T00:45:00;101234.47;;;15.16;72.17
4705;BME280;2366;51.332;6.610;2023-04-29T00:47:25;101242.91;;;15.10;72.95
4705;BME280;2366;51.332;6.610;2023-04-29T00:49:51;101239.06;;;15.14;72.44
4705;BME280;2366;51.332;6.610;2023-04-29T00:52:16;101234.66;;;15.13;72.90
4705;BME280;2366;51.332;6.610;2023-04-29T00:54:43;101238.38;;;15.24;72.69
4705;BME280;2366;51.332;6.610;2023-04-29T00:57:08;101243.50;;;15.27;72.08
4705;BME280;2366;51.332;6.610;2023-04-29T00:59:34;101239.13;;;15.26;72.10
4705;BME280;2366;51.332;6.610;2023-04-29T01:02:01;101252.78;;;15.34;72.20
4705;BME280;2366;51.332;6.610;2023-04-29T01:04:28;101252.69;;;15.35;71.52
4705;BME280;2366;51.332;6.610;2023-04-29T01:07:14;101253.66;;;15.22;72.07
4705;BME280;2366;51.332;6.610;2023-04-29T01:10:07;101254.44;;;15.11;72.30
4705;BME280;2366;51.332;6.610;2023-04-29T01:12:55;101257.94;;;15.11;72.70
4705;BME280;2366;51.332;6.610;2023-04-29T01:15:29;101258.25;;;15.19;72.08
4705;BME280;2366;51.332;6.610;2023-04-29T01:18:04;101263.09;;;15.14;72.41
4705;BME280;2366;51.332;6.610;2023-04-29T01:20:34;101266.28;;;15.07;71.82
4705;BME280;2366;51.332;6.610;2023-04-29T01:23:02;101263.84;;;15.04;72.05
4705;BME280;2366;51.332;6.610;2023-04-29T01:25:28;101264.94;;;15.01;71.92
4705;BME280;2366;51.332;6.610;2023-04-29T01:28:14;101272.72;;;14.91;71.77
4705;BME280;2366;51.332;6.610;2023-04-29T01:39:15;101281.16;;;14.47;72.33
4705;BME280;2366;51.332;6.610;2023-04-29T01:41:50;101282.28;;;14.17;73.97
4705;BME280;2366;51.332;6.610;2023-04-29T01:44:21;101285.34;;;14.11;73.69
4705;BME280;2366;51.332;6.610;2023-04-29T01:46:51;101280.06;;;14.36;73.61
4705;BME280;2366;51.332;6.610;2023-04-29T01:49:23;101283.28;;;14.54;72.81
4705;BME280;2366;51.332;6.610;2023-04-29T01:51:49;101289.50;;;14.68;71.80
4705;BME280;2366;51.332;6.610;2023-04-29T01:54:15;101282.44;;;14.54;72.26
4705;BME280;2366;51.332;6.610;2023-04-29T01:56:40;101286.63;;;14.58;71.50
4705;BME280;2366;51.332;6.610;2023-04-29T01:59:06;101284.00;;;14.44;71.24
4705;BME280;2366;51.332;6.610;2023-04-29T02:01:32;101292.16;;;14.55;71.59
4705;BME280;2366;51.332;6.610;2023-04-29T02:03:58;101291.88;;;14.60;71.03
4705;BME280;2366;51.332;6.610;2023-04-29T02:06:23;101296.63;;;14.54;71.26
4705;BME280;2366;51.332;6.610;2023-04-29T02:08:49;101299.81;;;14.47;70.89
4705;BME280;2366;51.332;6.610;2023-04-29T02:11:14;101306.31;;;14.43;71.17
4705;BME280;2366;51.332;6.610;2023-04-29T02:13:40;101307.28;;;14.42;71.11
4705;BME280;2366;51.332;6.610;2023-04-29T02:16:15;101305.75;;;14.25;71.58
4705;BME280;2366;51.332;6.610;2023-04-29T02:18:41;101305.91;;;14.36;71.17
4705;BME280;2366;51.332;6.610;2023-04-29T02:21:06;101303.31;;;14.34;71.75
4705;BME280;2366;51.332;6.610;2023-04-29T02:23:33;101312.06;;;14.36;71.61
4705;BME280;2366;51.332;6.610;2023-04-29T02:25:58;101310.78;;;14.29;71.25
4705;BME280;2366;51.332;6.610;2023-04-29T02:28:24;101321.56;;;14.01;72.67
4705;BME280;2366;51.332;6.610;2023-04-29T02:30:49;101329.56;;;14.01;73.07
4705;BME280;2366;51.332;6.610;2023-04-29T02:33:15;101324.59;;;14.09;73.26
4705;BME280;2366;51.332;6.610;2023-04-29T02:35:42;101330.13;;;14.06;73.27
4705;BME280;2366;51.332;6.610;2023-04-29T02:38:08;101334.19;;;14.11;73.55
4705;BME280;2366;51.332;6.610;2023-04-29T02:40:33;101329.06;;;14.08;73.41
4705;BME280;2366;51.332;6.610;2023-04-29T02:42:58;101329.38;;;14.04;73.60
4705;BME280;2366;51.332;6.610;2023-04-29T02:45:25;101333.66;;;14.06;73.80
4705;BME280;2366;51.332;6.610;2023-04-29T02:47:51;101331.66;;;14.10;73.66
4705;BME280;2366;51.332;6.610;2023-04-29T02:50:16;101336.75;;;14.13;73.58
4705;BME280;2366;51.332;6.610;2023-04-29T02:52:41;101338.50;;;14.14;73.60
4705;BME280;2366;51.332;6.610;2023-04-29T02:55:07;101349.16;;;14.14;73.68
4705;BME280;2366;51.332;6.610;2023-04-29T02:57:33;101354.16;;;13.91;74.13
4705;BME280;2366;51.332;6.610;2023-04-29T02:59:59;101354.16;;;13.91;74.47
4705;BME280;2366;51.332;6.610;2023-04-29T03:02:24;101358.03;;;14.00;74.56
4705;BME280;2366;51.332;6.610;2023-04-29T03:04:50;101353.78;;;13.97;74.05
4705;BME280;2366;51.332;6.610;2023-04-29T03:07:16;101362.63;;;13.98;74.54
4705;BME280;2366;51.332;6.610;2023-04-29T03:09:42;101357.09;;;14.01;74.53
4705;BME280;2366;51.332;6.610;2023-04-29T03:12:07;101365.28;;;13.98;74.35
4705;BME280;2366;51.332;6.610;2023-04-29T03:14:33;101362.72;;;13.96;74.21
4705;BME280;2366;51.332;6.610;2023-04-29T03:16:58;101371.59;;;13.97;74.72
4705;BME280;2366;51.332;6.610;2023-04-29T03:19:24;101367.47;;;14.06;74.17
4705;BME280;2366;51.332;6.610;2023-04-29T03:21:49;101370.16;;;13.91;74.14
4705;BME280;2366;51.332;6.610;2023-04-29T03:24:14;101374.56;;;13.92;74.63
4705;BME280;2366;51.332;6.610;2023-04-29T03:26:40;101377.66;;;13.99;74.97
4705;BME280;2366;51.332;6.610;2023-04-29T03:29:07;101383.19;;;13.96;74.43
4705;BME280;2366;51.332;6.610;2023-04-29T03:31:32;101379.47;;;13.98;74.62
4705;BME280;2366;51.332;6.610;2023-04-29T03:33:58;101383.50;;;13.91;75.21
4705;BME280;2366;51.332;6.610;2023-04-29T03:36:24;101384.03;;;13.96;75.19
4705;BME280;2366;51.332;6.610;2023-04-29T03:38:49;101386.53;;;13.85;75.30
4705;BME280;2366;51.332;6.610;2023-04-29T03:41:14;101386.53;;;13.85;75.15
4705;BME280;2366;51.332;6.610;2023-04-29T03:43:40;101379.97;;;13.91;75.14
4705;BME280;2366;51.332;6.610;2023-04-29T03:46:08;101391.41;;;13.93;74.47
4705;BME280;2366;51.332;6.610;2023-04-29T03:48:33;101397.56;;;13.93;74.16
4705;BME280;2366;51.332;6.610;2023-04-29T03:50:59;101391.31;;;13.94;74.85
4705;BME280;2366;51.332;6.610;2023-04-29T03:53:24;101392.91;;;13.97;74.78
4705;BME280;2366;51.332;6.610;2023-04-29T03:55:50;101396.16;;;13.88;74.75
4705;BME280;2366;51.332;6.610;2023-04-29T03:58:15;101393.38;;;13.89;74.93
4705;BME280;2366;51.332;6.610;2023-04-29T04:00:41;101396.50;;;13.96;74.84
4705;BME280;2366;51.332;6.610;2023-04-29T04:03:06;101391.09;;;13.97;74.58
4705;BME280;2366;51.332;6.610;2023-04-29T04:05:33;101399.94;;;13.98;74.80
4705;BME280;2366;51.332;6.610;2023-04-29T04:07:58;101400.25;;;13.93;74.43
4705;BME280;2366;51.332;6.610;2023-04-29T04:10:25;101405.78;;;13.90;73.70
4705;BME280;2366;51.332;6.610;2023-04-29T04:12:52;101402.66;;;13.84;74.50
4705;BME280;2366;51.332;6.610;2023-04-29T04:15:18;101409.78;;;13.83;74.72
4705;BME280;2366;51.332;6.610;2023-04-29T04:17:43;101411.28;;;13.87;74.74
4705;BME280;2366;51.332;6.610;2023-04-29T04:20:09;101409.09;;;13.94;74.67
4705;BME280;2366;51.332;6.610;2023-04-29T04:22:34;101415.69;;;13.88;74.25
4705;BME280;2366;51.332;6.610;2023-04-29T04:25:00;101414.72;;;13.89;74.12
4705;BME280;2366;51.332;6.610;2023-04-29T04:27:25;101420.50;;;13.96;74.30
4705;BME280;2366;51.332;6.610;2023-04-29T04:29:54;101427.75;;;13.94;73.86
4705;BME280;2366;51.332;6.610;2023-04-29T04:32:20;101426.13;;;13.91;74.00
4705;BME280;2366;51.332;6.610;2023-04-29T04:34:46;101421.34;;;13.96;74.06
4705;BME280;2366;51.332;6.610;2023-04-29T04:37:12;101422.31;;;13.95;73.88
4705;BME280;2366;51.332;6.610;2023-04-29T04:39:38;101434.72;;;13.82;73.53
4705;BME280;2366;51.332;6.610;2023-04-29T04:42:03;101432.81;;;13.84;74.09
4705;BME280;2366;51.332;6.610;2023-04-29T04:44:29;101438.41;;;13.94;74.11
4705;BME280;2366;51.332;6.610;2023-04-29T04:46:55;101444.41;;;13.97;73.54
4705;BME280;2366;51.332;6.610;2023-04-29T04:49:22;101442.69;;;13.96;73.71
4705;BME280;2366;51.332;6.610;2023-04-29T04:51:49;101448.50;;;14.03;73.79
4705;BME280;2366;51.332;6.610;2023-04-29T04:54:15;101443.44;;;13.98;73.54
4705;BME280;2366;51.332;6.610;2023-04-29T04:56:41;101459.03;;;14.05;73.54
4705;BME280;2366;51.332;6.610;2023-04-29T04:59:06;101453.16;;;14.00;73.47
4705;BME280;2366;51.332;6.610;2023-04-29T05:01:32;101455.53;;;14.04;73.60
4705;BME280;2366;51.332;6.610;2023-04-29T05:03:58;101459.81;;;14.07;73.69
4705;BME280;2366;51.332;6.610;2023-04-29T05:06:24;101463.22;;;14.09;73.14
4705;BME280;2366;51.332;6.610;2023-04-29T05:08:50;101463.22;;;14.09;73.16
4705;BME280;2366;51.332;6.610;2023-04-29T05:11:16;101469.72;;;14.05;73.41
4705;BME280;2366;51.332;6.610;2023-04-29T05:13:42;101469.88;;;14.16;73.17
4705;BME280;2366;51.332;6.610;2023-04-29T05:16:07;101464.53;;;14.16;73.16
4705;BME280;2366;51.332;6.610;2023-04-29T05:18:33;101477.31;;;14.11;73.32
4705;BME280;2366;51.332;6.610;2023-04-29T05:20:58;101483.41;;;14.27;73.07
4705;BME280;2366;51.332;6.610;2023-04-29T05:23:24;101490.78;;;14.36;73.01
4705;BME280;2366;51.332;6.610;2023-04-29T05:25:49;101487.59;;;14.44;72.51
4705;BME280;2366;51.332;6.610;2023-04-29T05:28:15;101487.72;;;14.43;72.17
4705;BME280;2366;51.332;6.610;2023-04-29T05:30:40;101487.72;;;14.43;71.93
4705;BME280;2366;51.332;6.610;2023-04-29T05:33:06;101490.94;;;14.48;71.84
4705;BME280;2366;51.332;6.610;2023-04-29T05:35:31;101491.34;;;14.42;71.70
4705;BME280;2366;51.332;6.610;2023-04-29T05:37:57;101488.03;;;14.38;72.21
4705;BME280;2366;51.332;6.610;2023-04-29T05:40:22;101501.25;;;14.39;71.93
4705;BME280;2366;51.332;6.610;2023-04-29T05:42:48;101506.63;;;14.25;71.93
4705;BME280;2366;51.332;6.610;2023-04-29T05:45:13;101501.94;;;14.29;71.62
4705;BME280;2366;51.332;6.610;2023-04-29T05:47:39;101504.91;;;14.24;71.81
4705;BME280;2366;51.332;6.610;2023-04-29T05:50:04;101507.19;;;14.16;71.63
4705;BME280;2366;51.332;6.610;2023-04-29T05:52:30;101507.19;;;14.16;72.18
4705;BME280;2366;51.332;6.610;2023-04-29T05:54:55;101521.13;;;14.21;72.25
4705;BME280;2366;51.332;6.610;2023-04-29T05:57:22;101523.56;;;14.24;71.64
4705;BME280;2366;51.332;6.610;2023-04-29T05:59:47;101521.75;;;14.25;71.87
4705;BME280;2366;51.332;6.610;2023-04-29T06:02:12;101530.13;;;14.33;71.93
4705;BME280;2366;51.332;6.610;2023-04-29T06:04:38;101525.84;;;14.30;71.82
4705;BME280;2366;51.332;6.610;2023-04-29T06:07:05;101528.34;;;14.33;71.69
4705;BME280;2366;51.332;6.610;2023-04-29T06:09:34;101528.53;;;14.30;71.62
4705;BME280;2366;51.332;6.610;2023-04-29T06:12:00;101549.09;;;14.28;71.68
4705;BME280;2366;51.332;6.610;2023-04-29T06:14:25;101551.09;;;14.25;71.59
4705;BME280;2366;51.332;6.610;2023-04-29T06:16:50;101551.22;;;14.23;71.53
4705;BME280;2366;51.332;6.610;2023-04-29T06:19:16;101554.66;;;14.25;71.45
4705;BME280;2366;51.332;6.610;2023-04-29T06:21:41;101563.19;;;14.30;71.55
4705;BME280;2366;51.332;6.610;2023-04-29T06:24:07;101569.00;;;14.37;71.20
4705;BME280;2366;51.332;6.610;2023-04-29T06:26:32;101571.75;;;14.35;71.29
4705;BME280;2366;51.332;6.610;2023-04-29T06:28:57;101574.41;;;14.35;71.15
4705;BME280;2366;51.332;6.610;2023-04-29T06:31:23;101581.78;;;14.32;71.03
4705;BME280;2366;51.332;6.610;2023-04-29T06:33:48;101575.78;;;14.28;71.09
4705;BME280;2366;51.332;6.610;2023-04-29T06:36:14;101584.16;;;14.36;70.96
4705;BME280;2366;51.332;6.610;2023-04-29T06:38:39;101585.38;;;14.31;70.59
4705;BME280;2366;51.332;6.610;2023-04-29T06:41:05;101572.63;;;14.36;70.59
4705;BME280;2366;51.332;6.610;2023-04-29T06:43:30;101584.44;;;14.32;70.12
4705;BME280;2366;51.332;6.610;2023-04-29T06:45:55;101582.34;;;14.37;70.64
4705;BME280;2366;51.332;6.610;2023-04-29T06:48:21;101585.28;;;14.47;70.43
4705;BME280;2366;51.332;6.610;2023-04-29T06:50:54;101589.47;;;14.65;70.21
4705;BME280;2366;51.332;6.610;2023-04-29T06:53:20;101592.84;;;14.82;69.76
4705;BME280;2366;51.332;6.610;2023-04-29T06:55:46;101595.16;;;14.73;68.43
4705;BME280;2366;51.332;6.610;2023-04-29T06:58:12;101599.75;;;14.71;68.18
4705;BME280;2366;51.332;6.610;2023-04-29T07:00:38;101603.47;;;14.69;69.00
4705;BME280;2366;51.332;6.610;2023-04-29T07:03:03;101605.84;;;14.59;68.41
4705;BME280;2366;51.332;6.610;2023-04-29T07:05:29;101613.84;;;14.73;68.64
4705;BME280;2366;51.332;6.610;2023-04-29T07:07:54;101604.69;;;14.77;68.33
4705;BME280;2366;51.332;6.610;2023-04-29T07:10:20;101609.81;;;14.81;68.25
4705;BME280;2366;51.332;6.610;2023-04-29T07:12:45;101617.97;;;14.92;68.07
4705;BME280;2366;51.332;6.610;2023-04-29T07:15:10;101624.25;;;15.05;67.54
4705;BME280;2366;51.332;6.610;2023-04-29T07:17:36;101627.28;;;14.72;67.39
4705;BME280;2366;51.332;6.610;2023-04-29T07:20:02;101626.69;;;14.81;67.64
4705;BME280;2366;51.332;6.610;2023-04-29T07:22:28;101627.41;;;14.97;66.79
4705;BME280;2366;51.332;6.610;2023-04-29T07:24:54;101641.16;;;15.18;66.76
4705;BME280;2366;51.332;6.610;2023-04-29T07:27:20;101640.09;;;15.21;65.74
4705;BME280;2366;51.332;6.610;2023-04-29T07:29:45;101645.22;;;15.24;65.93
4705;BME280;2366;51.332;6.610;2023-04-29T07:32:10;101646.75;;;15.28;66.01
4705;BME280;2366;51.332;6.610;2023-04-29T07:34:36;101646.28;;;15.22;64.81
4705;BME280;2366;51.332;6.610;2023-04-29T07:37:01;101650.91;;;15.59;65.38
4705;BME280;2366;51.332;6.610;2023-04-29T07:39:26;101651.59;;;15.89;62.58
4705;BME280;2366;51.332;6.610;2023-04-29T07:41:53;101649.47;;;15.81;62.81
4705;BME280;2366;51.332;6.610;2023-04-29T07:44:18;101651.72;;;16.13;62.31
4705;BME280;2366;51.332;6.610;2023-04-29T07:46:44;101655.69;;;15.94;61.43
4705;BME280;2366;51.332;6.610;2023-04-29T07:49:09;101657.19;;;15.86;61.79
4705;BME280;2366;51.332;6.610;2023-04-29T07:51:34;101657.97;;;16.50;61.02
4705;BME280;2366;51.332;6.610;2023-04-29T07:54:00;101660.50;;;16.77;60.30
4705;BME280;2366;51.332;6.610;2023-04-29T07:56:25;101662.94;;;17.17;60.24
4705;BME280;2366;51.332;6.610;2023-04-29T07:58:51;101666.50;;;17.42;59.50
4705;BME280;2366;51.332;6.610;2023-04-29T08:01:16;101671.38;;;17.00;59.24
4705;BME280;2366;51.332;6.610;2023-04-29T08:03:42;101670.38;;;16.90;59.07
4705;BME280;2366;51.332;6.610;2023-04-29T08:06:07;101672.91;;;16.78;60.00
4705;BME280;2366;51.332;6.610;2023-04-29T08:08:32;101675.34;;;16.19;59.30
4705;BME280;2366;51.332;6.610;2023-04-29T08:10:58;101682.09;;;15.59;61.30
4705;BME280;2366;51.332;6.610;2023-04-29T08:13:24;101676.75;;;15.46;62.81
4705;BME280;2366;51.332;6.610;2023-04-29T08:15:49;101678.16;;;15.65;62.89
4705;BME280;2366;51.332;6.610;2023-04-29T08:18:15;101683.81;;;15.60;61.93
4705;BME280;2366;51.332;6.610;2023-04-29T08:20:40;101686.72;;;15.30;62.48
4705;BME280;2366;51.332;6.610;2023-04-29T08:23:06;101685.28;;;15.24;63.14
4705;BME280;2366;51.332;6.610;2023-04-29T08:25:31;101687.81;;;15.13;63.61
4705;BME280;2366;51.332;6.610;2023-04-29T08:27:57;101695.44;;;15.19;63.83
4705;BME280;2366;51.332;6.610;2023-04-29T08:30:23;101699.03;;;15.05;63.48
4705;BME280;2366;51.332;6.610;2023-04-29T08:32:48;101707.03;;;15.05;63.50
4705;BME280;2366;51.332;6.610;2023-04-29T08:35:15;101705.13;;;15.07;63.51
4705;BME280;2366;51.332;6.610;2023-04-29T08:37:40;101700.09;;;14.88;63.91
4705;BME280;2366;51.332;6.610;2023-04-29T08:40:07;101700.03;;;14.75;64.72
4705;BME280;2366;51.332;6.610;2023-04-29T08:42:34;101714.03;;;14.79;64.62
4705;BME280;2366;51.332;6.610;2023-04-29T08:45:01;101714.50;;;14.71;64.62
4705;BME280;2366;51.332;6.610;2023-04-29T08:47:30;101717.16;;;14.57;65.27
4705;BME280;2366;51.332;6.610;2023-04-29T08:50:01;101720.69;;;14.72;64.83
4705;BME280;2366;51.332;6.610;2023-04-29T08:52:28;101719.25;;;14.52;65.24
4705;BME280;2366;51.332;6.610;2023-04-29T08:54:54;101724.78;;;14.92;65.16
4705;BME280;2366;51.332;6.610;2023-04-29T08:57:21;101730.16;;;15.19;64.50
4705;BME280;2366;51.332;6.610;2023-04-29T08:59:47;101735.13;;;15.11;63.90
4705;BME280;2366;51.332;6.610;2023-04-29T09:02:15;101744.03;;;14.97;64.97
4705;BME280;2366;51.332;6.610;2023-04-29T09:05:05;101741.97;;;14.88;64.35
4705;BME280;2366;51.332;6.610;2023-04-29T09:07:34;101737.66;;;14.99;64.93
4705;BME280;2366;51.332;6.610;2023-04-29T09:10:01;101743.84;;;15.00;63.54
4705;BME280;2366;51.332;6.610;2023-04-29T09:12:28;101731.16;;;15.31;64.16
4705;BME280;2366;51.332;6.610;2023-04-29T09:14:55;101738.03;;;15.35;64.21
4705;BME280;2366;51.332;6.610;2023-04-29T09:17:40;101742.94;;;15.55;63.10
4705;BME280;2366;51.332;6.610;2023-04-29T09:25:16;101742.66;;;15.18;62.69
4705;BME280;2366;51.332;6.610;2023-04-29T09:27:42;101756.97;;;15.17;63.09
4705;BME280;2366;51.332;6.610;2023-04-29T09:30:08;101759.16;;;15.11;63.47
4705;BME280;2366;51.332;6.610;2023-04-29T09:32:34;101752.00;;;15.11;63.20
4705;BME280;2366;51.332;6.610;2023-04-29T09:35:26;101758.53;;;15.07;63.51
4705;BME280;2366;51.332;6.610;2023-04-29T09:37:52;101760.38;;;15.34;63.49
4705;BME280;2366;51.332;6.610;2023-04-29T09:40:30;101766.00;;;15.56;63.04
4705;BME280;2366;51.332;6.610;2023-04-29T09:42:57;101762.09;;;15.62;62.30
4705;BME280;2366;51.332;6.610;2023-04-29T09:45:36;101769.00;;;15.52;62.34
4705;BME280;2366;51.332;6.610;2023-04-29T09:48:06;101772.47;;;15.39;62.50
4705;BME280;2366;51.332;6.610;2023-04-29T09:50:37;101765.34;;;15.26;63.37
4705;BME280;2366;51.332;6.610;2023-04-29T09:53:04;101770.69;;;15.26;63.21
4705;BME280;2366;51.332;6.610;2023-04-29T09:55:30;101767.09;;;15.12;62.85
4705;BME280;2366;51.332;6.610;2023-04-29T09:57:56;101769.94;;;15.09;62.90
4705;BME280;2366;51.332;6.610;2023-04-29T10:00:21;101773.28;;;15.27;62.18
4705;BME280;2366;51.332;6.610;2023-04-29T10:02:48;101778.31;;;15.32;62.27
4705;BME280;2366;51.332;6.610;2023-04-29T10:05:14;101782.91;;;15.57;61.73
4705;BME280;2366;51.332;6.610;2023-04-29T10:07:41;101787.16;;;15.47;61.84
4705;BME280;2366;51.332;6.610;2023-04-29T10:10:06;101792.59;;;15.45;61.57
4705;BME280;2366;51.332;6.610;2023-04-29T10:12:35;101782.75;;;15.46;61.83
4705;BME280;2366;51.332;6.610;2023-04-29T10:15:02;101787.47;;;15.42;62.13
4705;BME280;2366;51.332;6.610;2023-04-29T10:17:43;101804.94;;;15.60;60.78
4705;BME280;2366;51.332;6.610;2023-04-29T10:20:13;101804.09;;;15.60;60.75
4705;BME280;2366;51.332;6.610;2023-04-29T10:22:50;101806.69;;;15.61;60.96
4705;BME280;2366;51.332;6.610;2023-04-29T10:25:18;101805.75;;;15.90;60.61
4705;BME280;2366;51.332;6.610;2023-04-29T10:27:44;101799.69;;;16.13;59.79
4705;BME280;2366;51.332;6.610;2023-04-29T10:30:15;101801.75;;;16.22;59.30
4705;BME280;2366;51.332;6.610;2023-04-29T10:32:41;101799.28;;;16.19;58.99
4705;BME280;2366;51.332;6.610;2023-04-29T10:35:09;101802.19;;;16.29;59.93
4705;BME280;2366;51.332;6.610;2023-04-29T10:37:36;101806.94;;;16.64;59.10
4705;BME280;2366;51.332;6.610;2023-04-29T10:40:13;101803.59;;;16.73;58.19
4705;BME280;2366;51.332;6.610;2023-04-29T10:45:27;101801.94;;;16.85;58.97
4705;BME280;2366;51.332;6.610;2023-04-29T10:53:02;101806.94;;;16.90;57.35
4705;BME280;2366;51.332;6.610;2023-04-29T10:55:28;101810.56;;;16.76;57.39
4705;BME280;2366;51.332;6.610;2023-04-29T10:57:54;101808.75;;;16.76;58.11
4705;BME280;2366;51.332;6.610;2023-04-29T11:00:22;101814.56;;;16.96;56.91
4705;BME280;2366;51.332;6.610;2023-04-29T11:02:47;101809.56;;;17.15;57.44
4705;BME280;2366;51.332;6.610;2023-04-29T11:05:13;101814.81;;;17.54;57.02
4705;BME280;2366;51.332;6.610;2023-04-29T11:07:38;101809.41;;;17.66;56.01
4705;BME280;2366;51.332;6.610;2023-04-29T11:10:05;101819.09;;;17.56;55.31
4705;BME280;2366;51.332;6.610;2023-04-29T11:12:31;101822.25;;;17.87;55.19
4705;BME280;2366;51.332;6.610;2023-04-29T11:14:57;101823.69;;;17.91;55.25
4705;BME280;2366;51.332;6.610;2023-04-29T11:17:36;101824.13;;;18.33;52.85
4705;BME280;2366;51.332;6.610;2023-04-29T11:20:02;101821.44;;;18.44;52.48
4705;BME280;2366;51.332;6.610;2023-04-29T11:22:28;101813.41;;;18.56;52.17
4705;BME280;2366;51.332;6.610;2023-04-29T11:25:02;101815.03;;;18.70;51.64
4705;BME280;2366;51.332;6.610;2023-04-29T11:27:36;101807.50;;;18.97;51.67
4705;BME280;2366;51.332;6.610;2023-04-29T11:30:03;101813.84;;;18.85;52.72
4705;BME280;2366;51.332;6.610;2023-04-29T11:32:34;101813.16;;;19.49;52.05
4705;BME280;2366;51.332;6.610;2023-04-29T11:35:07;101813.00;;;20.05;50.46
4705;BME280;2366;51.332;6.610;2023-04-29T11:37:34;101818.56;;;20.67;49.27
4705;BME280;2366;51.332;6.610;2023-04-29T11:40:00;101814.94;;;20.57;47.22
4705;BME280;2366;51.332;6.610;2023-04-29T11:42:25;101821.66;;;20.41;46.59
4705;BME280;2366;51.332;6.610;2023-04-29T11:44:52;101821.66;;;20.41;47.66
4705;BME280;2366;51.332;6.610;2023-04-29T11:47:18;101809.81;;;20.33;48.17
4705;BME280;2366;51.332;6.610;2023-04-29T11:49:45;101809.34;;;20.48;47.94
4705;BME280;2366;51.332;6.610;2023-04-29T11:52:11;101810.47;;;20.46;47.46
4705;BME280;2366;51.332;6.610;2023-04-29T11:54:37;101813.03;;;20.47;46.39
4705;BME280;2366;51.332;6.610;2023-04-29T11:57:03;101814.72;;;20.27;46.97
4705;BME280;2366;51.332;6.610;2023-04-29T11:59:30;101810.06;;;20.08;47.98
4705;BME280;2366;51.332;6.610;2023-04-29T12:01:57;101821.19;;;20.57;48.37
4705;BME280;2366;51.332;6.610;2023-04-29T12:04:23;101816.41;;;20.91;46.47
4705;BME280;2366;51.332;6.610;2023-04-29T12:06:50;101828.16;;;20.60;46.04
4705;BME280;2366;51.332;6.610;2023-04-29T12:09:17;101816.56;;;20.27;46.27
4705;BME280;2366;51.332;6.610;2023-04-29T12:11:43;101814.66;;;20.18;46.06
4705;BME280;2366;51.332;6.610;2023-04-29T12:14:09;101814.66;;;20.18;47.48
4705;BME280;2366;51.332;6.610;2023-04-29T12:16:34;101815.00;;;20.66;46.71
4705;BME280;2366;51.332;6.610;2023-04-29T12:19:00;101814.75;;;20.69;45.23
4705;BME280;2366;51.332;6.610;2023-04-29T12:21:26;101814.53;;;19.98;47.45
4705;BME280;2366;51.332;6.610;2023-04-29T12:23:52;101812.69;;;19.99;47.68
4705;BME280;2366;51.332;6.610;2023-04-29T12:26:18;101811.38;;;19.82;47.19
4705;BME280;2366;51.332;6.610;2023-04-29T12:28:45;101815.13;;;19.58;46.94
4705;BME280;2366;51.332;6.610;2023-04-29T12:31:14;101809.00;;;20.21;46.81
4705;BME280;2366;51.332;6.610;2023-04-29T12:33:42;101806.13;;;20.55;44.82
4705;BME280;2366;51.332;6.610;2023-04-29T12:36:15;101813.03;;;20.68;44.27
4705;BME280;2366;51.332;6.610;2023-04-29T12:38:42;101815.50;;;20.81;44.76
4705;BME280;2366;51.332;6.610;2023-04-29T12:41:07;101804.84;;;21.41;45.33
4705;BME280;2366;51.332;6.610;2023-04-29T12:43:33;101809.09;;;21.44;43.49
4705;BME280;2366;51.332;6.610;2023-04-29T12:46:03;101808.03;;;20.85;44.19
4705;BME280;2366;51.332;6.610;2023-04-29T12:48:33;101804.56;;;20.52;43.30
4705;BME280;2366;51.332;6.610;2023-04-29T12:50:59;101803.66;;;19.88;43.88
4705;BME280;2366;51.332;6.610;2023-04-29T12:53:25;101804.53;;;19.34;45.56
4705;BME280;2366;51.332;6.610;2023-04-29T12:55:52;101813.97;;;18.95;46.93
4705;BME280;2366;51.332;6.610;2023-04-29T12:58:17;101810.50;;;18.59;47.72
4705;BME280;2366;51.332;6.610;2023-04-29T13:00:43;101810.88;;;18.19;48.75
4705;BME280;2366;51.332;6.610;2023-04-29T13:03:08;101818.56;;;18.23;48.68
4705;BME280;2366;51.332;6.610;2023-04-29T13:05:34;101817.03;;;18.32;48.21
4705;BME280;2366;51.332;6.610;2023-04-29T13:07:59;101821.41;;;18.22;48.44
4705;BME280;2366;51.332;6.610;2023-04-29T13:10:25;101827.19;;;18.40;48.20
4705;BME280;2366;51.332;6.610;2023-04-29T13:12:52;101827.75;;;18.32;48.22
4705;BME280;2366;51.332;6.610;2023-04-29T13:15:18;101829.22;;;18.25;48.49
4705;BME280;2366;51.332;6.610;2023-04-29T13:17:43;101826.59;;;18.12;49.02
4705;BME280;2366;51.332;6.610;2023-04-29T13:20:10;101829.94;;;18.27;49.13
4705;BME280;2366;51.332;6.610;2023-04-29T13:22:35;101830.72;;;18.40;49.41
4705;BME280;2366;51.332;6.610;2023-04-29T13:25:01;101831.22;;;18.45;49.70
4705;BME280;2366;51.332;6.610;2023-04-29T13:27:27;101837.13;;;18.73;49.21
4705;BME280;2366;51.332;6.610;2023-04-29T13:29:53;101833.88;;;18.81;48.33
4705;BME280;2366;51.332;6.610;2023-04-29T13:32:18;101836.44;;;18.82;48.69